Time;durP1;ratioP1;P1;durP2;ratioP2;P2;SDS_P1;SDS_P2;PMS_P1;PMS_P2;Temp;Humidity;BMP_temperature;BMP_pressure;BME280_temperature;BME280_humidity;BME280_pressure;Samples;Min_cycle;Max_cycle;Signal;HPM_P1;HPM_P2
2022/10/03 00:02:02;;;;;;;3.83;1.65;;;;;;;14.42;48.03;93881.34;5050094;28;20094;-78
2022/10/03 00:04:57;;;;;;;3.75;1.70;;;;;;;14.49;48.02;93875.44;5051314;28;20077;-77
2022/10/03 00:07:57;;;;;;;5.30;1.47;;;;;;;14.39;48.21;93874.00;5046844;28;20029;-77
2022/10/03 00:10:45;;;;;;;3.55;1.77;;;;;;;14.44;48.14;93867.63;5048576;28;20269;-79
2022/10/03 00:13:26;;;;;;;3.17;1.23;;;;;;;14.37;48.04;93854.84;5049611;28;20046;-76
2022/10/03 00:16:35;;;;;;;1.60;0.90;;;;;;;14.32;48.30;93855.06;5050008;28;20081;-76
2022/10/03 00:19:19;;;;;;;1.48;1.13;;;;;;;14.32;48.31;93854.28;5051918;28;20021;-77
2022/10/03 00:22:17;;;;;;;1.75;0.93;;;;;;;14.31;48.40;93831.31;5047963;28;20077;-77
2022/10/03 00:24:51;;;;;;;1.77;1.40;;;;;;;14.31;48.12;93836.66;5049687;28;20029;-76
2022/10/03 00:27:24;;;;;;;1.15;0.93;;;;;;;13.96;48.36;93782.84;5050495;28;20032;-77
2022/10/03 00:30:16;;;;;;;2.88;0.95;;;;;;;14.14;48.60;93824.28;5057367;28;20036;-77
2022/10/03 00:32:56;;;;;;;1.55;1.15;;;;;;;14.02;48.71;93841.13;5057611;28;20051;-76
2022/10/03 00:35:56;;;;;;;1.30;1.08;;;;;;;14.10;49.01;93842.13;5049573;28;20040;-76
2022/10/03 00:38:35;;;;;;;0.80;0.75;;;;;;;13.88;48.69;93839.88;5059175;28;20013;-76
2022/10/03 00:41:12;;;;;;;1.35;1.10;;;;;;;13.97;49.15;93859.28;5057016;28;20669;-75
2022/10/03 00:43:57;;;;;;;2.03;1.20;;;;;;;13.73;49.03;93806.56;5058621;28;20057;-76
2022/10/03 00:46:31;;;;;;;3.03;1.20;;;;;;;13.97;48.61;93859.28;5047657;28;20128;-76
2022/10/03 00:49:34;;;;;;;5.30;1.88;;;;;;;14.00;48.88;93858.59;5050822;28;20145;-76
2022/10/03 00:52:22;;;;;;;1.98;1.20;;;;;;;14.01;48.92;93841.44;5051501;28;20034;-77
2022/10/03 00:54:54;;;;;;;0.88;0.70;;;;;;;13.86;48.97;93836.75;5048543;28;20414;-76
2022/10/03 00:57:38;;;;;;;1.35;0.93;;;;;;;13.89;49.12;93831.50;5049293;28;20036;-76
2022/10/03 01:00:18;;;;;;;0.98;0.95;;;;;;;13.88;49.02;93824.63;5048536;28;20024;-77
2022/10/03 01:03:05;;;;;;;1.08;0.80;;;;;;;13.97;48.99;93844.00;5046976;28;20056;-77
2022/10/03 01:05:56;;;;;;;4.10;1.02;;;;;;;13.87;48.93;93820.38;5048962;28;20024;-77
2022/10/03 01:09:02;;;;;;;1.80;0.88;;;;;;;13.96;49.11;93836.31;5050072;28;20028;-77
2022/10/03 01:11:59;;;;;;;2.42;0.98;;;;;;;13.92;49.00;93830.88;5064907;28;20024;-77
2022/10/03 01:14:59;;;;;;;1.02;0.90;;;;;;;13.94;49.19;93827.84;5049216;28;20097;-77
2022/10/03 01:17:33;;;;;;;1.00;0.80;;;;;;;13.88;49.13;93829.19;5052697;28;20107;-76
2022/10/03 01:20:15;;;;;;;3.80;1.27;;;;;;;13.80;48.88;93814.00;5056073;28;20059;-76
2022/10/03 01:23:02;;;;;;;1.38;0.93;;;;;;;13.91;49.35;93825.84;5048806;28;20294;-76
2022/10/03 01:25:41;;;;;;;2.20;0.98;;;;;;;13.90;49.05;93816.25;5052702;28;20036;-76
2022/10/03 01:31:08;;;;;;;0.98;0.88;;;;;;;13.87;48.99;93812.38;5049469;28;20036;-76
2022/10/03 01:33:59;;;;;;;1.35;1.08;;;;;;;13.94;49.18;93817.16;5050376;28;20020;-77
2022/10/03 01:36:33;;;;;;;1.77;1.20;;;;;;;13.77;48.85;93785.28;5049634;28;20036;-76
2022/10/03 01:39:08;;;;;;;1.10;1.00;;;;;;;13.84;48.86;93801.56;5046532;28;20025;-76
2022/10/03 01:41:45;;;;;;;2.17;1.00;;;;;;;13.92;48.87;93814.81;5049171;28;20491;-77
2022/10/03 01:44:36;;;;;;;2.88;0.90;;;;;;;13.76;49.18;93797.88;5050773;28;20024;-76
2022/10/03 01:47:26;;;;;;;0.85;0.85;;;;;;;13.92;49.03;93819.38;5046471;28;20037;-77
2022/10/03 01:50:07;;;;;;;5.38;1.52;;;;;;;13.78;48.83;93800.22;5048121;28;20032;-77
2022/10/03 01:52:48;;;;;;;0.80;0.80;;;;;;;13.85;49.00;93817.25;5065914;28;20020;-77
2022/10/03 01:55:31;;;;;;;1.25;0.93;;;;;;;13.63;49.01;93778.38;5046893;28;20051;-76
2022/10/03 01:58:06;;;;;;;1.63;1.00;;;;;;;13.67;49.35;93787.28;5048863;28;20100;-76
2022/10/03 02:00:55;;;;;;;;;;;;;;;13.87;49.29;93806.25;5056256;28;20079;-76
2022/10/03 02:03:32;;;;;;;1.70;1.02;;;;;;;13.72;49.18;93784.41;5043543;28;19912;-76
2022/10/03 02:06:12;;;;;;;4.15;1.05;;;;;;;13.87;49.31;93807.03;5048938;28;20036;-76
2022/10/03 02:08:47;;;;;;;1.20;1.00;;;;;;;13.85;49.09;93803.09;5048167;28;20033;-77
2022/10/03 02:11:26;;;;;;;1.70;1.05;;;;;;;13.70;49.13;93773.25;5046253;28;20028;-77
2022/10/03 02:14:12;;;;;;;1.05;0.88;;;;;;;13.84;49.25;93785.53;5048353;28;20449;-77
2022/10/03 02:16:56;;;;;;;0.73;0.73;;;;;;;13.66;49.29;93772.38;5048443;28;20040;-76
2022/10/03 02:19:28;;;;;;;2.83;0.90;;;;;;;13.83;49.50;93795.44;5046875;28;20112;-76
2022/10/03 02:21:57;;;;;;;1.58;0.80;;;;;;;13.74;49.50;93787.50;5047685;28;20059;-78
2022/10/03 02:24:28;;;;;;;2.35;0.80;;;;;;;13.80;49.27;93797.97;5049967;28;20060;-76
2022/10/03 02:27:15;;;;;;;1.70;0.90;;;;;;;13.81;49.63;93794.19;5048936;28;20065;-76
2022/10/03 02:29:49;;;;;;;1.20;0.90;;;;;;;13.82;49.50;93795.75;5055310;28;20372;-77
2022/10/03 02:32:52;;;;;;;3.50;0.90;;;;;;;13.55;49.53;93747.16;5049384;28;20040;-77
2022/10/03 02:35:36;;;;;;;2.15;0.93;;;;;;;13.86;49.77;93788.63;5047667;28;20024;-77
2022/10/03 02:38:16;;;;;;;1.20;0.90;;;;;;;13.88;49.75;93792.53;5048040;28;20020;-77
2022/10/03 02:41:15;;;;;;;1.73;1.00;;;;;;;13.87;49.75;93796.34;5046106;28;20036;-76
2022/10/03 02:44:01;;;;;;;1.70;0.85;;;;;;;13.85;50.03;93795.09;5047067;28;20100;-77
2022/10/03 02:46:33;;;;;;;1.00;0.70;;;;;;;13.86;50.11;93800.13;5047471;28;20786;-76
2022/10/03 02:49:25;;;;;;;2.65;1.10;;;;;;;13.92;50.28;93795.31;5044194;28;20352;-76
2022/10/03 02:52:09;;;;;;;1.17;1.00;;;;;;;13.91;49.98;93799.09;5048690;28;20069;-77
2022/10/03 02:54:56;;;;;;;2.03;1.08;;;;;;;13.92;50.26;93800.69;5053079;28;20707;-76
2022/10/03 02:57:59;;;;;;;1.52;1.02;;;;;;;13.90;50.37;93802.88;5060863;28;20017;-77
2022/10/03 03:01:03;;;;;;;3.00;1.05;;;;;;;13.91;50.27;93801.78;5053179;28;20024;-75
2022/10/03 03:03:28;;;;;;;4.63;1.13;;;;;;;13.84;50.32;93801.56;5052052;28;20367;-77
2022/10/03 03:06:16;;;;;;;1.10;1.00;;;;;;;13.79;50.47;93788.44;5050941;28;20028;-76
2022/10/03 03:09:22;;;;;;;1.70;1.30;;;;;;;13.88;50.60;93794.44;5054830;28;20024;-76
2022/10/03 03:11:50;;;;;;;7.63;3.93;;;;;;;13.86;50.64;93793.97;5052251;28;20028;-77
2022/10/03 03:14:25;;;;;;;5.40;2.72;;;;;;;13.89;50.54;93798.66;5051209;28;20071;-76
2022/10/03 03:16:51;;;;;;;;;;;;;;;13.90;50.39;93794.88;5050990;28;20028;-77
2022/10/03 03:19:54;;;;;;;6.57;2.42;;;;;;;13.89;50.42;93786.06;5051836;28;19986;-78
2022/10/03 03:22:40;;;;;;;6.43;2.10;;;;;;;13.88;50.58;93791.75;5050207;28;20156;-77
2022/10/03 03:25:23;;;;;;;2.45;1.58;;;;;;;13.82;50.80;93783.19;5054189;28;20070;-76
2022/10/03 03:28:11;;;;;;;2.55;1.35;;;;;;;13.74;50.90;93776.81;5049245;28;20033;-76
2022/10/03 03:30:52;;;;;;;4.63;1.63;;;;;;;13.70;50.91;93754.53;5052507;28;20025;-76
2022/10/03 03:34:01;;;;;;;1.58;1.17;;;;;;;13.61;50.72;93753.88;5053261;28;20032;-77
2022/10/03 03:36:27;;;;;;;3.08;1.40;;;;;;;13.84;50.80;93793.56;5051330;28;20059;-76
2022/10/03 03:38:58;;;;;;;1.23;1.13;;;;;;;13.81;50.95;93780.84;5053624;28;20139;-76
2022/10/03 03:41:29;;;;;;;1.30;1.15;;;;;;;13.82;50.97;93777.84;5049790;28;20087;-76
2022/10/03 03:44:02;;;;;;;2.13;1.25;;;;;;;13.82;51.26;93777.84;5049761;28;20025;-76
2022/10/03 03:46:44;;;;;;;1.63;1.13;;;;;;;13.70;51.24;93751.09;5050339;28;20055;-76
2022/10/03 03:49:28;;;;;;;2.75;0.90;;;;;;;13.85;51.25;93779.84;5050588;28;20039;-77
2022/10/03 03:52:02;;;;;;;1.73;1.10;;;;;;;13.83;50.94;93773.28;5052672;28;20111;-76
2022/10/03 03:54:56;;;;;;;0.82;0.82;;;;;;;13.81;51.05;93770.13;5051923;28;20032;-76
2022/10/03 03:57:54;;;;;;;1.13;1.02;;;;;;;13.84;51.04;93769.50;5057339;28;20047;-77
2022/10/03 04:00:30;;;;;;;2.00;1.08;;;;;;;13.64;51.25;93734.50;5051260;28;20051;-77
2022/10/03 04:03:29;;;;;;;1.88;1.00;;;;;;;13.85;51.06;93757.66;5054165;28;20032;-76
2022/10/03 04:06:34;;;;;;;8.38;1.90;;;;;;;13.80;51.11;93758.66;5049041;28;20519;-77
2022/10/03 04:09:19;;;;;;;10.07;4.28;;;;;;;13.41;51.11;93703.94;5056853;28;20025;-77
2022/10/03 04:12:07;;;;;;;8.77;3.38;;;;;;;13.73;51.25;93756.56;5048571;28;20039;-76
2022/10/03 04:15:20;;;;;;;9.18;2.70;;;;;;;13.70;51.59;93756.44;5050109;28;20340;-76
2022/10/03 04:21:19;;;;;;;9.30;3.25;;;;;;;13.62;51.52;93758.09;5050713;28;20094;-76
2022/10/03 04:24:06;;;;;;;8.48;2.42;;;;;;;13.62;51.59;93763.47;5051160;28;20140;-76
2022/10/03 04:26:34;;;;;;;8.15;3.25;;;;;;;13.54;52.09;93764.31;5051362;28;20051;-77
2022/10/03 04:29:03;;;;;;;5.95;2.90;;;;;;;13.58;51.93;93767.88;5051273;28;20028;-77
2022/10/03 04:32:08;;;;;;;14.80;5.80;;;;;;;13.60;51.64;93760.31;5051398;28;20028;-77
2022/10/03 04:34:51;;;;;;;7.45;4.22;;;;;;;13.49;51.84;93737.81;5048753;28;20083;-76
2022/10/03 04:37:27;;;;;;;16.77;6.60;;;;;;;13.43;51.94;93733.00;5058647;28;20032;-77
2022/10/03 04:39:52;;;;;;;8.38;3.50;;;;;;;13.65;52.19;93754.75;5066341;28;20021;-76
2022/10/03 04:43:04;;;;;;;8.07;3.45;;;;;;;13.68;52.44;93751.44;5049642;28;20608;-77
2022/10/03 04:46:15;;;;;;;4.80;2.50;;;;;;;13.64;52.49;93753.19;5038202;28;20061;-78
2022/10/03 04:49:12;;;;;;;6.25;3.28;;;;;;;13.69;52.84;93747.63;5050003;28;20072;-77
2022/10/03 04:51:57;;;;;;;11.02;3.90;;;;;;;13.54;53.27;93750.97;5052381;28;20028;-76
2022/10/03 04:54:34;;;;;;;7.93;3.28;;;;;;;13.68;53.21;93751.44;5051765;28;20831;-77
2022/10/03 04:57:18;;;;;;;6.13;2.90;;;;;;;13.71;52.94;93756.09;5055762;28;20097;-76
2022/10/03 04:59:47;;;;;;;8.32;2.83;;;;;;;13.63;52.90;93738.28;5049406;28;20074;-77
2022/10/03 05:02:21;;;;;;;3.33;2.22;;;;;;;13.80;53.02;93758.66;5052530;28;20021;-76
2022/10/03 05:05:09;;;;;;;4.40;2.03;;;;;;;13.86;52.80;93753.88;5051501;28;20074;-76
2022/10/03 05:07:52;;;;;;;4.75;2.70;;;;;;;13.70;52.70;93746.53;5050074;28;20031;-76
2022/10/03 05:10:45;;;;;;;6.75;3.05;;;;;;;13.78;52.43;93741.41;5049637;28;20028;-77
2022/10/03 05:13:15;;;;;;;9.68;2.85;;;;;;;13.80;52.41;93742.63;5051720;28;20027;-76
2022/10/03 05:15:55;;;;;;;5.00;2.80;;;;;;;13.86;52.44;93745.88;5049834;28;20103;-77
2022/10/03 05:18:33;;;;;;;12.35;3.90;;;;;;;13.85;52.44;93750.44;5045699;28;20058;-76
2022/10/03 05:21:09;;;;;;;4.43;2.33;;;;;;;13.89;52.64;93748.63;5048420;28;20039;-77
2022/10/03 05:24:08;;;;;;;4.88;2.25;;;;;;;14.01;52.42;93739.84;5048037;28;20841;-78
2022/10/03 05:26:41;;;;;;;4.38;2.17;;;;;;;14.05;52.44;93754.09;5050170;28;20032;-76
2022/10/03 05:29:37;;;;;;;4.45;2.00;;;;;;;14.09;52.61;93754.97;5049663;28;20028;-77
2022/10/03 05:32:44;;;;;;;4.88;1.92;;;;;;;14.12;52.80;93751.66;5050255;28;20025;-77
2022/10/03 05:35:18;;;;;;;6.15;2.65;;;;;;;14.11;52.89;93744.75;5028495;28;20060;-77
2022/10/03 05:38:08;;;;;;;3.90;3.07;;;;;;;14.18;52.63;93745.72;5045974;28;20258;-76
2022/10/03 05:40:38;;;;;;;4.88;2.47;;;;;;;14.11;52.72;93712.66;5047453;28;20277;-77
2022/10/03 05:43:35;;;;;;;7.05;2.85;;;;;;;14.24;52.58;93716.84;5046981;28;20593;-76
2022/10/03 05:46:06;;;;;;;9.63;3.83;;;;;;;14.29;52.72;93727.31;5036313;28;20037;-76
2022/10/03 05:48:49;;;;;;;5.53;2.63;;;;;;;14.31;52.18;93711.72;5049214;28;20508;-77
2022/10/03 05:51:52;;;;;;;9.60;3.40;;;;;;;14.33;52.87;93716.72;5049953;28;20114;-76
2022/10/03 05:54:32;;;;;;;4.78;3.03;;;;;;;14.31;52.96;93718.97;5049740;28;20135;-76
2022/10/03 05:57:22;;;;;;;4.22;2.75;;;;;;;14.35;53.33;93733.22;5049759;28;20036;-76
2022/10/03 06:00:00;;;;;;;5.20;3.85;;;;;;;14.33;52.96;93735.44;5046223;28;20435;-76
2022/10/03 06:03:02;;;;;;;4.68;2.97;;;;;;;14.34;52.58;93740.44;5045530;28;20653;-76
2022/10/03 06:05:52;;;;;;;6.63;3.22;;;;;;;14.22;52.25;93753.88;5047572;28;20041;-77
2022/10/03 06:08:45;;;;;;;3.92;2.97;;;;;;;14.28;52.49;93751.72;5047174;28;20089;-77
2022/10/03 06:11:10;;;;;;;7.53;3.80;;;;;;;14.20;52.41;93761.44;5049915;28;20716;-76
2022/10/03 06:13:54;;;;;;;15.27;6.43;;;;;;;14.19;52.80;93759.88;5048477;28;20063;-76
2022/10/03 06:16:54;;;;;;;10.73;3.90;;;;;;;14.22;52.41;93764.56;5050721;28;20059;-77
2022/10/03 06:19:46;;;;;;;7.38;4.55;;;;;;;14.14;52.23;93752.06;5050911;28;20396;-77
2022/10/03 06:23:03;;;;;;;7.20;4.07;;;;;;;14.29;52.45;93766.66;5041436;28;20060;-77
2022/10/03 06:25:59;;;;;;;8.45;3.58;;;;;;;14.26;52.93;93760.09;5020605;28;20071;-76
2022/10/03 06:28:43;;;;;;;14.35;5.85;;;;;;;14.37;52.61;93774.56;5045828;28;20515;-77
2022/10/03 06:31:27;;;;;;;6.57;4.28;;;;;;;14.43;52.74;93759.81;5052460;28;20033;-76
2022/10/03 06:34:07;;;;;;;9.00;3.85;;;;;;;14.48;53.05;93756.13;5054323;28;20625;-76
2022/10/03 06:36:55;;;;;;;8.48;3.95;;;;;;;14.50;53.28;93757.38;5055578;28;20390;-77
2022/10/03 06:40:03;;;;;;;4.25;2.97;;;;;;;14.61;52.58;93755.03;5055013;28;20028;-78
2022/10/03 06:42:56;;;;;;;6.13;3.55;;;;;;;14.66;52.40;93757.47;5055313;28;20055;-77
2022/10/03 06:45:40;;;;;;;6.60;3.70;;;;;;;14.75;52.45;93754.66;5030811;28;20523;-76
2022/10/03 06:48:24;;;;;;;8.50;4.60;;;;;;;14.66;52.36;93762.84;5030728;28;20041;-77
2022/10/03 06:51:30;;;;;;;7.32;4.40;;;;;;;14.74;51.87;93763.78;5034052;28;20108;-76
2022/10/03 06:53:56;;;;;;;6.20;3.58;;;;;;;14.82;51.93;93765.53;5003599;28;20122;-77
2022/10/03 06:56:40;;;;;;;8.55;4.13;;;;;;;14.87;52.16;93773.34;5030015;28;20136;-77
2022/10/03 06:59:14;;;;;;;9.15;3.90;;;;;;;14.89;51.54;93779.13;5031131;28;20753;-76
2022/10/03 07:01:55;;;;;;;7.57;4.10;;;;;;;14.95;51.74;93777.78;5033345;28;20029;-75
2022/10/03 07:04:44;;;;;;;7.68;3.88;;;;;;;14.98;51.76;93795.84;5034176;28;20037;-76
2022/10/03 07:07:31;;;;;;;7.40;3.80;;;;;;;15.01;51.55;93789.78;5028188;28;20588;-77
2022/10/03 07:10:12;;;;;;;8.60;4.25;;;;;;;15.05;51.43;93804.09;5028689;28;20036;-76
2022/10/03 07:13:08;;;;;;;7.78;3.88;;;;;;;14.95;51.67;93818.75;5032168;28;20038;-77
2022/10/03 07:15:48;;;;;;;13.48;4.55;;;;;;;14.99;51.84;93827.66;5035957;28;20025;-76
2022/10/03 07:18:16;;;;;;;7.47;4.53;;;;;;;15.03;51.32;93835.78;5028127;28;20068;-77
2022/10/03 07:21:19;;;;;;;9.63;4.85;;;;;;;14.96;50.02;93841.69;5030126;28;20028;-77
2022/10/03 07:24:02;;;;;;;5.85;4.13;;;;;;;14.89;50.35;93846.09;5026322;28;20041;-76
2022/10/03 07:27:08;;;;;;;8.77;4.50;;;;;;;14.78;50.59;93851.13;5029988;28;20811;-77
2022/10/03 07:30:12;;;;;;;12.60;7.50;;;;;;;14.80;51.17;93869.53;5031753;28;20048;-75
2022/10/03 07:33:05;;;;;;;10.82;7.25;;;;;;;14.66;51.97;93875.25;5023820;28;20084;-75
2022/10/03 07:41:27;;;;;;;11.57;6.65;;;;;;;14.62;52.87;93879.69;5029543;28;20549;-76
2022/10/03 07:44:32;;;;;;;13.85;8.43;;;;;;;14.57;53.04;93856.63;5026881;28;20036;-76
2022/10/03 07:47:42;;;;;;;12.73;10.00;;;;;;;14.65;53.73;93867.53;5022661;28;20021;-76
2022/10/03 07:50:53;;;;;;;13.35;7.18;;;;;;;14.66;54.19;93877.16;5003950;28;20045;-75
2022/10/03 07:53:46;;;;;;;14.15;8.75;;;;;;;14.63;54.56;93881.25;5007121;28;20041;-76
2022/10/03 07:56:47;;;;;;;15.07;7.47;;;;;;;14.50;55.42;93867.09;5025980;28;20033;-75
2022/10/03 07:59:21;;;;;;;13.23;8.68;;;;;;;14.54;55.95;93872.56;5027310;28;20017;-76
2022/10/03 08:01:55;;;;;;;10.75;7.45;;;;;;;14.62;56.22;93873.59;5021443;28;20521;-75
2022/10/03 08:04:29;;;;;;;10.05;7.00;;;;;;;14.65;55.82;93873.69;5026737;28;20071;-75
2022/10/03 08:07:21;;;;;;;13.45;7.78;;;;;;;14.68;56.47;93869.53;5021413;28;20312;-75
2022/10/03 08:10:59;;;;;;;13.98;9.73;;;;;;;14.71;56.64;93882.28;5022980;28;20040;-74
2022/10/03 08:13:24;;;;;;;25.60;12.63;;;;;;;14.72;56.32;93875.78;4950199;28;20488;-75
2022/10/03 08:16:04;;;;;;;15.18;8.13;;;;;;;14.27;56.41;93804.47;4974097;28;20120;-74
2022/10/03 08:18:59;;;;;;;8.38;5.10;;;;;;;14.74;56.66;93882.38;5014734;28;20136;-75
2022/10/03 08:22:02;;;;;;;6.72;5.30;;;;;;;14.76;57.28;93882.03;4977277;28;20445;-75
2022/10/03 08:24:55;;;;;;;3.15;2.63;;;;;;;14.30;58.48;93854.59;5024674;28;20030;-75
2022/10/03 08:27:58;;;;;;;4.20;1.95;;;;;;;14.33;59.70;93874.53;5023716;28;20334;-75
2022/10/03 08:31:01;;;;;;;1.85;1.60;;;;;;;14.32;59.62;93851.59;5024884;28;20045;-75
2022/10/03 08:34:07;;;;;;;5.75;2.15;;;;;;;14.31;60.62;93864.19;5024089;28;20028;-76
2022/10/03 08:37:06;;;;;;;5.20;3.58;;;;;;;14.33;61.17;93885.25;5026900;28;20483;-75
2022/10/03 08:39:59;;;;;;;3.00;2.15;;;;;;;14.15;60.68;93884.69;5025919;28;20064;-76
2022/10/03 08:42:49;;;;;;;1.70;1.42;;;;;;;14.09;60.42;93888.69;5021490;28;20025;-74
2022/10/03 08:45:15;;;;;;;2.30;1.40;;;;;;;14.15;60.38;93898.84;5024015;28;20444;-75
2022/10/03 08:48:08;;;;;;;4.82;1.73;;;;;;;13.87;59.74;93865.84;5024998;28;20139;-75
2022/10/03 08:50:46;;;;;;;3.05;1.75;;;;;;;13.93;60.03;93891.25;5028341;28;20119;-76
2022/10/03 08:54:05;;;;;;;2.00;1.45;;;;;;;13.87;60.32;93903.25;5025582;28;20036;-74
2022/10/03 08:56:56;;;;;;;4.53;2.53;;;;;;;13.94;60.19;93900.03;5004034;28;20081;-76
2022/10/03 08:59:30;;;;;;;3.88;2.00;;;;;;;13.65;60.37;93904.41;5018826;28;20037;-75
2022/10/03 09:02:32;;;;;;;3.90;2.78;;;;;;;13.77;61.38;93900.22;5032356;28;20025;-75
2022/10/03 09:05:06;;;;;;;7.35;2.65;;;;;;;13.93;61.15;93895.81;5025690;28;20040;-75
2022/10/03 09:07:47;;;;;;;6.78;3.28;;;;;;;13.80;61.02;93878.94;5026498;28;20048;-76
2022/10/03 09:10:55;;;;;;;5.43;2.72;;;;;;;13.89;59.97;93903.69;5026694;28;20047;-74
2022/10/03 09:13:32;;;;;;;1.95;1.65;;;;;;;13.98;60.30;93904.41;5014490;28;20353;-75
2022/10/03 09:16:04;;;;;;;2.83;1.60;;;;;;;13.95;60.79;93904.28;5023380;28;20029;-75
2022/10/03 09:18:51;;;;;;;2.88;1.30;;;;;;;13.95;60.98;93905.06;5025771;28;20051;-75
2022/10/03 09:21:34;;;;;;;2.75;1.92;;;;;;;14.01;62.15;93902.94;5024342;28;20106;-75
2022/10/03 09:24:21;;;;;;;7.07;2.47;;;;;;;13.92;62.27;93903.06;5022503;28;20491;-76
2022/10/03 09:27:12;;;;;;;4.90;2.03;;;;;;;13.84;62.10;93908.50;5022229;28;20529;-75
2022/10/03 09:29:52;;;;;;;2.85;1.90;;;;;;;13.80;60.72;93891.53;5028773;28;20660;-75
2022/10/03 09:32:55;;;;;;;3.72;2.00;;;;;;;13.60;61.34;93898.50;5024814;28;20059;-76
2022/10/03 09:35:29;;;;;;;1.88;1.48;;;;;;;13.77;61.23;93903.69;5023229;28;20594;-75
2022/10/03 09:38:01;;;;;;;2.08;1.70;;;;;;;13.91;61.65;93898.03;5029847;28;20029;-76
2022/10/03 09:40:41;;;;;;;3.97;1.88;;;;;;;13.85;61.43;93900.13;5024220;28;20059;-75
2022/10/03 09:43:28;;;;;;;2.70;1.90;;;;;;;13.83;61.70;93902.38;5026048;28;20104;-75
2022/10/03 09:46:12;;;;;;;3.78;1.70;;;;;;;13.70;60.71;93909.56;5026734;28;20021;-74
2022/10/03 09:48:50;;;;;;;2.90;2.25;;;;;;;13.58;61.79;93909.50;5024579;28;20070;-74
2022/10/03 09:51:20;;;;;;;3.65;2.33;;;;;;;13.73;61.40;93908.13;5024459;28;20037;-75
2022/10/03 09:53:54;;;;;;;3.80;1.67;;;;;;;13.89;60.88;93911.72;5023599;28;20072;-76
2022/10/03 09:56:47;;;;;;;3.88;2.22;;;;;;;13.72;61.46;93903.88;5025619;28;20065;-78
2022/10/03 09:59:56;;;;;;;3.00;1.80;;;;;;;13.74;62.54;93901.66;5025149;28;20017;-77
2022/10/03 10:02:44;;;;;;;3.28;2.20;;;;;;;13.74;62.55;93889.06;5023863;28;20032;-74
2022/10/03 10:05:34;;;;;;;3.92;1.98;;;;;;;13.80;61.20;93902.22;5024856;28;20180;-75
2022/10/03 10:08:13;;;;;;;1.90;1.73;;;;;;;13.88;60.40;93898.69;5025630;28;20021;-77
2022/10/03 10:11:40;;;;;;;3.78;1.77;;;;;;;13.83;60.32;93898.91;5022554;28;20033;-77
2022/10/03 10:14:20;;;;;;;6.88;1.85;;;;;;;13.55;58.82;93885.31;5001086;28;20036;-77
2022/10/03 10:17:25;;;;;;;2.15;1.95;;;;;;;13.63;58.12;93889.84;5022934;28;20067;-77
2022/10/03 10:21:04;;;;;;;5.15;1.73;;;;;;;13.45;58.39;93907.09;5032665;28;20029;-77
2022/10/03 10:23:48;;;;;;;2.90;1.90;;;;;;;13.47;58.50;93900.31;4971762;28;20487;-75
2022/10/03 10:26:32;;;;;;;5.38;2.80;;;;;;;13.58;57.29;93895.34;4952021;28;20492;-74
2022/10/03 10:29:24;;;;;;;6.85;2.60;;;;;;;13.51;57.78;93887.88;5009771;28;20453;-76
2022/10/03 10:32:24;;;;;;;2.22;2.00;;;;;;;13.50;57.97;93893.53;5026113;28;20075;-75
2022/10/03 10:35:01;;;;;;;1.85;1.75;;;;;;;13.48;57.58;93896.56;5025707;28;20563;-77
2022/10/03 10:38:24;;;;;;;2.28;2.05;;;;;;;13.55;55.49;93896.78;5032531;28;20459;-75
2022/10/03 10:41:02;;;;;;;2.40;2.20;;;;;;;13.63;55.74;93890.63;4972130;28;20512;-77
2022/10/03 10:43:40;;;;;;;2.78;2.03;;;;;;;13.60;54.70;93899.28;5024149;28;20036;-78
2022/10/03 10:46:43;;;;;;;1.85;1.75;;;;;;;13.74;54.67;93889.06;5023883;28;20033;-77
2022/10/03 10:49:37;;;;;;;8.38;7.63;;;;;;;13.74;54.29;93898.97;5023727;28;20037;-77
2022/10/03 10:52:32;;;;;;;11.68;10.65;;;;;;;13.74;53.71;93905.09;5025270;28;20840;-77
2022/10/03 10:55:04;;;;;;;11.40;10.40;;;;;;;13.77;53.31;93902.91;5026743;28;20340;-76
2022/10/03 10:58:14;;;;;;;2.55;2.35;;;;;;;13.66;52.94;93891.84;5025551;28;20500;-76
2022/10/03 11:00:55;;;;;;;8.45;7.75;;;;;;;13.68;53.77;93901.09;5021865;28;20111;-76
2022/10/03 11:03:29;;;;;;;2.20;1.90;;;;;;;13.80;53.46;93900.34;5021841;28;20498;-77
2022/10/03 11:06:16;;;;;;;59.60;42.53;;;;;;;13.80;52.44;93897.66;5021711;28;20033;-76
2022/10/03 11:08:44;;;;;;;5.32;3.45;;;;;;;13.71;52.75;93884.41;5022751;28;20021;-76
2022/10/03 11:11:50;;;;;;;6.18;5.57;;;;;;;13.84;52.84;93889.78;5025945;28;20021;-76
2022/10/03 11:14:53;;;;;;;3.97;2.28;;;;;;;13.86;53.41;93901.69;5025061;28;20029;-76
2022/10/03 11:17:37;;;;;;;2.90;2.15;;;;;;;13.73;52.28;93884.88;5027002;28;20037;-75
2022/10/03 11:20:30;;;;;;;4.33;2.57;;;;;;;13.78;53.56;93894.56;5025946;28;20020;-75
2022/10/03 11:23:07;;;;;;;4.03;3.33;;;;;;;13.49;53.75;93906.13;5027602;28;20298;-76
2022/10/03 11:25:52;;;;;;;2.72;2.53;;;;;;;13.50;53.52;93912.22;5023262;28;20297;-76
2022/10/03 11:28:36;;;;;;;3.20;2.90;;;;;;;13.40;53.68;93910.75;5026771;28;20041;-76
2022/10/03 11:31:08;;;;;;;2.20;2.00;;;;;;;13.06;55.43;93916.38;5027026;28;20119;-75
2022/10/03 11:33:40;;;;;;;5.47;2.38;;;;;;;13.15;55.60;93920.53;5026791;28;20530;-77
2022/10/03 11:36:31;;;;;;;2.97;2.42;;;;;;;13.18;54.72;93914.56;5027232;28;20060;-76
2022/10/03 11:39:04;;;;;;;3.72;1.92;;;;;;;13.00;55.00;93885.66;5022054;28;20069;-76
2022/10/03 11:41:49;;;;;;;4.88;2.70;;;;;;;13.14;54.35;93886.16;5028843;28;20496;-76
2022/10/03 11:44:15;;;;;;;3.40;2.25;;;;;;;13.18;54.43;93909.22;5026598;28;20083;-77
2022/10/03 11:46:57;;;;;;;2.97;2.20;;;;;;;13.28;54.57;93897.34;5027073;28;20033;-76
2022/10/03 11:49:53;;;;;;;4.75;2.83;;;;;;;13.24;54.78;93885.78;5029025;28;20424;-76
2022/10/03 11:52:27;;;;;;;6.53;3.30;;;;;;;13.38;54.11;93907.63;5024765;28;20048;-76
2022/10/03 11:55:15;;;;;;;5.47;2.83;;;;;;;13.20;54.01;93869.59;5027575;28;20391;-77
2022/10/03 11:57:44;;;;;;;6.32;3.40;;;;;;;13.39;53.25;93893.19;5026089;28;20052;-76
2022/10/03 12:00:18;;;;;;;4.60;2.88;;;;;;;13.52;52.76;93881.41;5026904;28;20014;-76
2022/10/03 12:03:15;;;;;;;4.22;3.13;;;;;;;13.58;52.13;93888.13;5024727;28;20028;-75
2022/10/03 12:09:08;;;;;;;3.65;2.83;;;;;;;13.67;50.24;93888.06;5022832;28;20048;-76
2022/10/03 12:11:56;;;;;;;4.03;3.72;;;;;;;13.32;51.78;93853.63;5024577;28;20037;-76
2022/10/03 12:14:21;;;;;;;7.38;4.60;;;;;;;13.56;52.30;93893.00;5032478;28;20769;-76
2022/10/03 12:17:01;;;;;;;5.85;3.17;;;;;;;13.27;52.19;93853.06;5023361;28;20172;-76
2022/10/03 12:19:38;;;;;;;4.10;3.13;;;;;;;13.55;52.25;93890.66;5025786;28;20048;-76
2022/10/03 12:22:21;;;;;;;3.85;3.08;;;;;;;13.44;52.78;93884.19;5023391;28;20053;-76
2022/10/03 12:24:48;;;;;;;32.92;23.35;;;;;;;13.32;53.16;93879.56;5032296;28;20052;-76
2022/10/03 12:27:49;;;;;;;12.32;11.00;;;;;;;13.42;53.00;93902.41;5024993;28;20036;-77
2022/10/03 12:30:18;;;;;;;25.27;19.70;;;;;;;13.36;52.47;93869.00;4994084;28;20349;-76
2022/10/03 12:32:48;;;;;;;4.85;3.78;;;;;;;13.38;50.42;93894.28;5027185;28;20538;-76
2022/10/03 12:35:39;;;;;;;3.58;2.78;;;;;;;13.38;49.40;93869.47;5027209;28;20091;-76
2022/10/03 12:38:23;;;;;;;4.85;2.80;;;;;;;13.40;48.90;93877.94;5030680;28;20021;-76
2022/10/03 12:41:05;;;;;;;3.00;2.58;;;;;;;13.44;49.28;93866.25;5029524;28;20294;-75
2022/10/03 12:43:44;;;;;;;3.50;3.20;;;;;;;13.48;50.17;93858.38;5026453;28;20564;-76
2022/10/03 12:46:13;;;;;;;4.47;3.97;;;;;;;13.63;49.98;93849.75;5022733;28;20037;-76
2022/10/03 12:48:41;;;;;;;4.00;3.33;;;;;;;13.90;49.35;93869.72;5024047;28;20918;-76
2022/10/03 12:51:16;;;;;;;3.47;2.58;;;;;;;13.92;47.80;93872.84;5026169;28;20109;-77
2022/10/03 12:54:09;;;;;;;3.83;3.08;;;;;;;14.04;48.01;93875.53;5024366;28;20132;-76
2022/10/03 12:57:06;;;;;;;3.60;2.47;;;;;;;14.03;48.28;93874.00;5027150;28;20063;-76
2022/10/03 12:59:46;;;;;;;3.95;3.08;;;;;;;13.87;46.36;93854.34;5028756;28;20316;-76
2022/10/03 13:02:36;;;;;;;4.00;2.95;;;;;;;13.73;46.54;93831.41;5028595;28;20083;-76
2022/10/03 13:05:32;;;;;;;4.97;3.20;;;;;;;14.00;45.89;93880.78;5027701;28;20033;-76
2022/10/03 13:08:01;;;;;;;4.40;4.00;;;;;;;13.88;45.55;93877.31;5030203;28;20028;-76
2022/10/03 13:10:32;;;;;;;3.95;3.28;;;;;;;13.95;46.62;93889.00;5026974;28;20033;-76
2022/10/03 13:13:04;;;;;;;4.32;3.78;;;;;;;14.02;46.63;93881.25;5027644;28;20057;-76
2022/10/03 13:15:43;;;;;;;3.15;2.85;;;;;;;14.17;45.23;93882.47;5029493;28;20521;-77